Time;durP1;ratioP1;P1;durP2;ratioP2;P2;SDS_P1;SDS_P2;PMS_P1;PMS_P2;Temp;Humidity;BMP_temperature;BMP_pressure;BME280_temperature;BME280_humidity;BME280_pressure;Samples;Min_cycle;Max_cycle;Signal;HPM_P1;HPM_P2
2022/04/21 00:00:14;;;;;;;2.85;1.20;;;6.30;91.90;;;;;;4994463;28;20022;-82
2022/04/21 00:02:41;;;;;;;7.55;1.10;;;6.20;92.10;;;;;;4994612;28;20035;-83
2022/04/21 00:05:07;;;;;;;9.48;0.90;;;6.20;92.20;;;;;;4993851;28;20494;-83
2022/04/21 00:07:33;;;;;;;3.28;1.00;;;6.20;92.20;;;;;;4994308;28;20492;-81
2022/04/21 00:09:59;;;;;;;3.22;0.88;;;6.20;92.50;;;;;;4977038;28;20031;-81
2022/04/21 00:12:25;;;;;;;7.18;1.40;;;6.20;92.80;;;;;;4976863;28;20106;-83
2022/04/21 00:14:51;;;;;;;2.42;0.90;;;6.20;92.90;;;;;;4994583;28;20022;-81
2022/04/21 00:17:16;;;;;;;1.23;0.88;;;6.10;92.90;;;;;;4994047;28;20026;-82
2022/04/21 00:19:42;;;;;;;3.60;0.85;;;6.10;92.90;;;;;;4994263;28;20025;-81
2022/04/21 00:24:52;;;;;;;2.00;0.80;;;5.90;93.10;;;;;;4994448;28;20393;-80
2022/04/21 00:27:18;;;;;;;5.75;1.10;;;5.80;93.90;;;;;;4993833;28;20022;-81
2022/04/21 00:29:44;;;;;;;2.63;0.90;;;5.80;94.40;;;;;;4994264;28;20389;-81
2022/04/21 00:32:10;;;;;;;3.35;1.10;;;5.70;94.70;;;;;;4994046;28;20030;-80
2022/04/21 00:34:37;;;;;;;2.00;1.38;;;5.70;95.00;;;;;;4993916;28;20544;-80
2022/04/21 00:37:03;;;;;;;3.65;0.95;;;5.60;94.90;;;;;;4993210;28;20080;-80
2022/04/21 00:39:32;;;;;;;2.50;0.75;;;5.60;95.40;;;;;;4993886;28;20093;-81
2022/04/21 00:42:02;;;;;;;1.50;1.00;;;5.50;95.60;;;;;;4993534;28;20022;-78
2022/04/21 00:44:29;;;;;;;5.22;1.10;;;5.50;95.60;;;;;;4993569;28;20042;-80
2022/04/21 00:46:57;;;;;;;12.32;1.45;;;5.50;95.70;;;;;;4993522;28;20492;-79
2022/04/21 00:49:25;;;;;;;8.90;1.83;;;5.50;96.30;;;;;;4993813;28;20474;-83
2022/04/21 00:51:52;;;;;;;11.32;1.73;;;5.50;96.50;;;;;;4993771;28;20382;-83
2022/04/21 00:54:18;;;;;;;21.80;2.13;;;5.40;96.90;;;;;;4993515;28;20022;-83
2022/04/21 00:56:45;;;;;;;7.93;1.30;;;5.40;97.10;;;;;;4993525;28;20030;-83
2022/04/21 00:59:11;;;;;;;11.23;1.65;;;5.30;97.10;;;;;;4993437;28;20035;-80
2022/04/21 01:04:25;;;;;;;12.52;2.88;;;5.30;97.10;;;;;;4993383;28;20041;-81
2022/04/21 01:06:55;;;;;;;11.05;1.60;;;5.30;97.40;;;;;;4993503;28;20030;-80
2022/04/21 01:09:21;;;;;;;8.48;1.85;;;5.20;98.10;;;;;;4993254;28;20320;-81
2022/04/21 01:11:50;;;;;;;12.63;1.73;;;5.20;98.40;;;;;;4993236;28;20034;-80
2022/04/21 01:14:16;;;;;;;15.13;1.77;;;5.10;98.20;;;;;;4993149;28;20109;-80
2022/04/21 01:16:42;;;;;;;12.85;1.40;;;5.10;97.90;;;;;;4992333;28;20022;-81
2022/04/21 01:19:08;;;;;;;7.90;1.27;;;5.10;97.60;;;;;;4993239;28;20401;-80
2022/04/21 01:21:34;;;;;;;8.73;1.20;;;5.00;97.60;;;;;;4993317;28;20026;-80
2022/04/21 01:24:00;;;;;;;10.18;1.10;;;5.00;97.70;;;;;;4992966;28;20177;-79
2022/04/21 01:26:31;;;;;;;19.27;2.03;;;4.90;97.80;;;;;;4992805;28;20100;-78
2022/04/21 01:28:57;;;;;;;7.88;1.20;;;4.90;97.80;;;;;;4992965;28;20161;-78
2022/04/21 01:31:23;;;;;;;10.38;1.48;;;4.80;98.30;;;;;;4992641;28;20109;-78
2022/04/21 01:33:50;;;;;;;4.43;0.90;;;4.80;98.70;;;;;;4992877;28;20030;-78
2022/04/21 01:36:16;;;;;;;5.53;1.00;;;4.80;99.20;;;;;;4992804;28;20034;-78
2022/04/21 01:41:26;;;;;;;1.17;0.98;;;4.90;98.80;;;;;;4992695;28;20188;-81
2022/04/21 01:43:51;;;;;;;3.05;0.93;;;4.90;98.90;;;;;;4992585;28;20117;-82
2022/04/21 01:46:17;;;;;;;1.60;0.90;;;4.90;99.80;;;;;;4992838;28;20030;-82
2022/04/21 01:48:43;;;;;;;12.35;1.10;;;4.90;99.90;;;;;;4992640;28;20494;-81
2022/04/21 01:51:08;;;;;;;4.80;1.38;;;4.80;99.60;;;;;;4992789;28;20025;-81
2022/04/21 01:53:34;;;;;;;17.85;1.20;;;4.80;99.90;;;;;;4959261;28;20050;-80
2022/04/21 01:56:00;;;;;;;4.70;2.17;;;4.80;99.90;;;;;;4973280;28;20402;-79
2022/04/21 01:58:26;;;;;;;11.82;1.55;;;4.80;99.90;;;;;;4973051;28;20277;-79
2022/04/21 02:00:52;;;;;;;6.82;1.10;;;4.80;99.90;;;;;;4973492;28;20037;-79
2022/04/21 02:03:18;;;;;;;8.05;1.20;;;4.80;99.90;;;;;;4973284;28;20034;-85
2022/04/21 02:05:44;;;;;;;7.57;1.15;;;4.80;99.90;;;;;;4973386;28;20118;-84
2022/04/21 02:08:09;;;;;;;2.97;1.35;;;4.70;99.90;;;;;;4973293;28;20110;-84
2022/04/21 02:10:35;;;;;;;6.03;0.90;;;4.70;99.90;;;;;;4973208;28;20130;-84
2022/04/21 02:13:01;;;;;;;5.82;1.25;;;4.60;99.90;;;;;;4973059;28;20033;-86
2022/04/21 02:15:28;;;;;;;20.33;1.75;;;4.60;99.90;;;;;;4973415;28;20549;-82
2022/04/21 02:17:53;;;;;;;15.80;1.67;;;4.60;99.90;;;;;;4972841;28;20151;-80
2022/04/21 02:20:20;;;;;;;24.23;4.55;;;4.50;99.90;;;;;;4972799;28;20027;-80
2022/04/21 02:22:46;;;;;;;11.27;1.65;;;4.50;99.90;;;;;;4972662;28;20031;-80
2022/04/21 02:51:51;;;;;;;10.80;1.70;;;4.20;99.90;;;;;;4994382;28;20052;-83
2022/04/21 02:57:20;;;;;;;17.73;2.58;;;4.20;99.90;;;;;;4976224;28;20394;-82
2022/04/21 02:59:46;;;;;;;6.53;1.58;;;4.10;99.90;;;;;;4976518;28;20040;-82
2022/04/21 03:02:12;;;;;;;13.55;1.70;;;4.10;99.90;;;;;;4976063;28;20065;-80
2022/04/21 03:38:17;;;;;;;12.75;1.42;;;3.70;99.90;;;;;;5441074;23;20114;-77
2022/04/21 03:40:43;;;;;;;4.85;1.30;;;3.70;99.90;;;;;;4974560;28;20038;-77
2022/04/21 03:43:10;;;;;;;4.78;1.20;;;3.70;99.90;;;;;;4975555;28;20034;-76
2022/04/21 03:45:36;;;;;;;2.95;0.98;;;3.70;99.90;;;;;;4975697;28;20034;-76
2022/04/21 03:48:02;;;;;;;4.82;1.25;;;3.80;99.90;;;;;;4976124;28;20031;-78
2022/04/21 03:50:31;;;;;;;2.00;1.00;;;3.70;99.90;;;;;;4975494;28;20097;-79
2022/04/21 03:52:57;;;;;;;1.67;1.10;;;3.60;99.90;;;;;;4957845;28;20030;-77
2022/04/21 03:55:23;;;;;;;6.60;1.30;;;3.60;99.90;;;;;;4975142;28;20026;-77
2022/04/21 03:57:49;;;;;;;4.88;1.30;;;3.50;99.90;;;;;;4974993;28;20026;-77
2022/04/21 04:00:15;;;;;;;6.60;1.10;;;3.60;99.90;;;;;;4975201;28;20072;-76
2022/04/21 04:02:40;;;;;;;2.47;1.08;;;3.70;99.90;;;;;;4974855;28;20490;-76
2022/04/21 04:05:06;;;;;;;3.00;1.15;;;3.90;99.90;;;;;;4975168;28;20031;-76
2022/04/21 04:13:00;;;;;;;3.70;1.25;;;4.60;99.90;;;;;;4975115;28;20489;-78
2022/04/21 04:15:26;;;;;;;2.20;1.10;;;4.90;99.90;;;;;;4975320;28;20023;-78
2022/04/21 04:17:51;;;;;;;1.30;1.02;;;5.20;99.90;;;;;;4974771;28;20433;-78
2022/04/21 04:20:17;;;;;;;2.35;0.98;;;5.50;99.90;;;;;;4974871;28;20029;-77
2022/04/21 04:22:43;;;;;;;1.50;1.20;;;5.90;99.90;;;;;;4974483;28;20041;-78
2022/04/21 04:25:09;;;;;;;1.95;1.10;;;6.20;99.90;;;;;;4975143;28;20378;-75
2022/04/21 04:27:36;;;;;;;4.90;0.90;;;6.50;99.90;;;;;;4974756;28;20105;-77
2022/04/21 04:30:07;;;;;;;3.58;1.33;;;6.90;99.90;;;;;;4974682;28;20031;-73
2022/04/21 04:32:33;;;;;;;5.78;1.40;;;7.30;99.90;;;;;;4974428;28;20641;-71
2022/04/21 04:34:58;;;;;;;1.65;1.10;;;7.60;99.90;;;;;;4974443;28;20045;-82
2022/04/21 04:37:24;;;;;;;3.65;0.90;;;8.00;99.90;;;;;;4974260;28;20498;-72
2022/04/21 04:39:50;;;;;;;2.55;0.95;;;8.80;99.90;;;;;;4974567;28;20441;-81
2022/04/21 04:42:21;;;;;;;13.90;1.70;;;10.50;99.90;;;;;;4974321;28;20390;-80
2022/04/21 04:44:48;;;;;;;6.80;1.30;;;10.70;89.00;;;;;;4973895;28;20101;-80
2022/04/21 04:47:14;;;;;;;3.35;1.38;;;10.30;87.20;;;;;;4986548;28;20386;-79
2022/04/21 04:49:40;;;;;;;3.10;1.00;;;10.10;87.10;;;;;;4976214;28;20508;-80
2022/04/21 04:52:06;;;;;;;6.60;1.20;;;10.00;87.40;;;;;;4993762;28;20076;-82
2022/04/21 04:54:32;;;;;;;4.93;1.05;;;10.10;87.40;;;;;;4990145;28;20026;-74
2022/04/21 04:56:58;;;;;;;9.02;1.20;;;10.30;86.30;;;;;;4990577;28;20018;-74
2022/04/21 04:59:23;;;;;;;4.25;1.08;;;10.60;84.90;;;;;;4988848;28;20045;-74
2022/04/21 05:01:49;;;;;;;22.25;1.92;;;10.80;83.40;;;;;;4992877;28;20019;-74
2022/04/21 05:04:19;;;;;;;13.00;1.30;;;11.00;81.80;;;;;;4992671;28;20042;-77
2022/04/21 05:06:50;;;;;;;8.45;1.40;;;11.30;80.00;;;;;;4990743;28;20069;-83
2022/04/21 05:09:19;;;;;;;6.00;0.90;;;11.40;78.20;;;;;;4992579;28;20477;-84
2022/04/21 05:11:46;;;;;;;2.50;1.00;;;11.60;77.50;;;;;;4975114;28;20018;-84
2022/04/21 05:14:14;;;;;;;6.10;0.90;;;11.70;76.80;;;;;;4992649;28;20026;-84
2022/04/21 05:16:40;;;;;;;6.38;1.10;;;11.80;75.40;;;;;;4993055;28;20053;-80
2022/04/21 05:19:19;;;;;;;11.68;1.20;;;11.90;75.10;;;;;;4993341;28;20026;-76
2022/04/21 05:21:46;;;;;;;7.00;1.27;;;12.10;73.80;;;;;;4992923;28;20034;-74
2022/04/21 05:24:13;;;;;;;5.22;0.80;;;12.30;73.20;;;;;;4992772;28;20038;-75
2022/04/21 05:26:40;;;;;;;1.45;0.77;;;12.50;72.60;;;;;;4993155;28;20026;-75
2022/04/21 05:31:56;;;;;;;3.35;0.75;;;12.90;70.70;;;;;;4993229;28;20041;-75
2022/04/21 05:34:27;;;;;;;5.60;0.90;;;13.10;69.70;;;;;;4992888;28;20386;-76
2022/04/21 05:36:53;;;;;;;2.60;1.15;;;13.20;69.30;;;;;;4992682;28;20061;-76
2022/04/21 05:39:20;;;;;;;3.45;0.75;;;13.40;69.00;;;;;;4994018;28;20137;-75
2022/04/21 05:41:47;;;;;;;6.75;1.13;;;13.60;67.80;;;;;;5012573;28;20030;-76
2022/04/21 05:44:13;;;;;;;7.47;0.95;;;13.70;67.30;;;;;;5012184;28;20034;-76
2022/04/21 05:46:39;;;;;;;3.47;0.85;;;13.80;66.90;;;;;;5012053;28;20469;-76
2022/04/21 05:49:05;;;;;;;5.88;0.88;;;14.00;67.10;;;;;;5012528;28;20079;-75
2022/04/21 05:51:31;;;;;;;2.92;1.17;;;14.10;65.50;;;;;;5012331;28;20026;-77
2022/04/21 05:53:58;;;;;;;11.75;1.35;;;14.20;65.20;;;;;;5012210;28;20038;-79
2022/04/21 05:56:25;;;;;;;6.03;1.20;;;14.40;65.20;;;;;;5012476;28;20109;-81
2022/04/21 05:58:51;;;;;;;25.92;1.60;;;14.60;64.20;;;;;;5012356;28;20033;-83
2022/04/21 06:01:18;;;;;;;10.88;1.35;;;14.60;63.70;;;;;;5012486;28;20030;-77
2022/04/21 06:03:44;;;;;;;10.02;1.23;;;14.70;63.60;;;;;;5011411;28;20044;-79
2022/04/21 06:06:10;;;;;;;12.85;1.20;;;15.10;63.90;;;;;;5012566;28;20104;-79
2022/04/21 06:08:37;;;;;;;8.02;1.25;;;15.10;62.50;;;;;;5011963;28;20465;-77
2022/04/21 06:11:03;;;;;;;5.65;1.13;;;15.20;63.70;;;;;;5011976;28;20503;-75
2022/04/21 06:13:31;;;;;;;23.20;1.67;;;15.40;61.80;;;;;;5012178;28;20033;-74
2022/04/21 06:15:59;;;;;;;12.73;1.50;;;15.50;67.00;;;;;;5012079;28;20388;-76
2022/04/21 06:18:26;;;;;;;13.45;1.25;;;16.00;63.60;;;;;;5011974;28;20564;-76
2022/04/21 06:20:52;;;;;;;13.52;1.38;;;15.90;61.00;;;;;;5011909;28;20033;-75
2022/04/21 06:23:19;;;;;;;13.73;1.83;;;15.90;60.40;;;;;;5011797;28;20473;-73
2022/04/21 06:25:45;;;;;;;14.10;1.85;;;15.80;60.40;;;;;;5012061;28;20416;-75
2022/04/21 06:28:12;;;;;;;15.02;1.55;;;15.80;60.30;;;;;;5011768;28;20105;-72
2022/04/21 06:30:38;;;;;;;7.15;1.15;;;15.70;60.00;;;;;;5011717;28;20465;-72
2022/04/21 06:33:05;;;;;;;10.73;1.48;;;15.80;60.00;;;;;;5011822;28;20022;-72
2022/04/21 06:35:31;;;;;;;15.18;1.55;;;15.80;60.00;;;;;;5011762;28;20073;-70
2022/04/21 06:37:57;;;;;;;3.15;0.90;;;16.00;60.00;;;;;;5003846;28;20497;-72
2022/04/21 06:40:24;;;;;;;15.30;1.10;;;16.00;59.60;;;;;;4992097;28;20038;-71
2022/04/21 06:42:50;;;;;;;12.02;1.40;;;16.00;59.50;;;;;;4992236;28;20049;-72
2022/04/21 06:48:03;;;;;;;12.23;1.10;;;16.00;59.40;;;;;;4992242;28;20077;-71
2022/04/21 06:50:36;;;;;;;8.50;1.20;;;15.90;59.30;;;;;;4991862;28;20034;-70
2022/04/21 06:53:04;;;;;;;5.30;1.20;;;15.90;59.20;;;;;;4991999;28;20041;-75
2022/04/21 06:55:30;;;;;;;5.00;0.95;;;15.70;59.40;;;;;;4991897;28;20076;-72
2022/04/21 06:57:56;;;;;;;3.47;0.98;;;15.70;59.60;;;;;;4991746;28;20030;-73
2022/04/21 07:00:22;;;;;;;8.95;1.25;;;15.60;59.80;;;;;;4991763;28;20019;-73
2022/04/21 07:02:51;;;;;;;5.22;1.00;;;15.50;59.90;;;;;;4991615;28;20113;-74
2022/04/21 07:05:17;;;;;;;4.68;0.90;;;15.40;59.80;;;;;;4992103;28;20027;-77
2022/04/21 07:07:44;;;;;;;5.00;0.95;;;15.30;60.00;;;;;;4973611;28;20030;-77
2022/04/21 07:10:11;;;;;;;13.65;1.00;;;15.20;60.40;;;;;;4991262;28;20385;-77
2022/04/21 07:12:37;;;;;;;12.35;1.65;;;15.30;60.90;;;;;;4991669;28;20022;-77
2022/04/21 07:15:06;;;;;;;3.38;0.90;;;15.40;60.80;;;;;;4993363;28;20385;-76
2022/04/21 07:17:32;;;;;;;5.68;0.93;;;15.60;60.40;;;;;;4995533;28;20071;-79
2022/04/21 07:19:59;;;;;;;13.52;1.20;;;15.60;60.20;;;;;;4994964;28;20031;-78
2022/04/21 07:22:25;;;;;;;3.60;1.33;;;15.60;60.00;;;;;;4992417;28;20389;-77
2022/04/21 07:24:54;;;;;;;9.27;1.05;;;15.60;60.00;;;;;;4992349;28;20358;-75
2022/04/21 07:27:20;;;;;;;133.00;8.90;;;15.60;60.20;;;;;;4994976;28;20076;-78
2022/04/21 07:29:47;;;;;;;40.63;2.65;;;15.70;60.40;;;;;;4995134;28;20038;-87
2022/04/21 07:32:13;;;;;;;38.25;3.45;;;15.80;60.40;;;;;;4995036;28;20018;-86
2022/04/21 07:34:39;;;;;;;14.68;1.45;;;15.80;61.20;;;;;;4994807;28;20030;-86
2022/04/21 07:37:05;;;;;;;21.10;1.83;;;15.70;61.20;;;;;;4994550;28;20018;-84
2022/04/21 07:39:34;;;;;;;34.42;2.17;;;15.80;61.20;;;;;;4991878;28;20030;-86
2022/04/21 07:41:59;;;;;;;17.90;1.48;;;15.80;61.50;;;;;;4991399;28;20030;-75
2022/04/21 07:44:29;;;;;;;16.80;1.40;;;15.80;61.50;;;;;;4991503;28;20042;-82
2022/04/21 07:46:55;;;;;;;15.40;2.08;;;15.80;61.70;;;;;;4989762;28;20027;-77
2022/04/21 07:54:51;;;;;;;30.83;3.78;;;15.80;60.80;;;;;;4978649;28;20087;-77
2022/04/21 07:57:16;;;;;;;19.90;1.65;;;15.80;60.80;;;;;;4994306;28;20026;-73
2022/04/21 07:59:42;;;;;;;59.60;4.40;;;15.80;61.80;;;;;;5012698;28;20076;-75
2022/04/21 08:02:08;;;;;;;18.10;1.88;;;15.90;61.20;;;;;;5014064;28;20353;-76
2022/04/21 08:04:37;;;;;;;72.38;5.00;;;16.00;61.80;;;;;;5014119;28;20118;-75
2022/04/21 08:07:04;;;;;;;32.57;3.20;;;16.10;62.00;;;;;;5013801;28;20044;-78
2022/04/21 08:09:30;;;;;;;41.20;3.50;;;16.20;67.10;;;;;;4996751;28;20357;-73
2022/04/21 08:11:56;;;;;;;26.67;2.42;;;16.30;62.70;;;;;;4993992;28;20105;-73
2022/04/21 08:14:23;;;;;;;19.17;1.85;;;16.30;60.10;;;;;;4994164;28;20441;-73
2022/04/21 08:16:48;;;;;;;15.00;2.25;;;16.20;60.00;;;;;;4994081;28;20043;-73
2022/04/21 08:19:14;;;;;;;36.33;3.38;;;16.20;60.00;;;;;;4994202;28;20022;-73
2022/04/21 08:21:42;;;;;;;37.53;3.50;;;16.20;60.50;;;;;;4994290;28;20034;-73
2022/04/21 08:35:05;;;;;;;44.38;3.80;;;16.20;59.80;;;;;;4993768;28;20069;-73
2022/04/21 08:37:36;;;;;;;22.30;2.70;;;16.30;60.00;;;;;;4993921;28;20049;-73
2022/04/21 08:40:06;;;;;;;33.72;3.90;;;16.30;59.70;;;;;;4994054;28;20046;-73
2022/04/21 08:42:35;;;;;;;;;;;16.30;59.60;;;;;;4994136;28;20030;-73
2022/04/21 08:45:01;;;;;;;48.25;2.97;;;16.30;59.00;;;;;;4993717;28;19916;-73
2022/04/21 08:47:31;;;;;;;31.92;3.17;;;16.20;59.30;;;;;;4993972;28;20030;-73
2022/04/21 08:50:03;;;;;;;33.67;2.60;;;16.20;59.30;;;;;;4993459;28;20078;-73
2022/04/21 08:52:30;;;;;;;24.00;2.60;;;16.20;59.40;;;;;;4993735;28;20034;-73
2022/04/21 08:54:56;;;;;;;42.85;2.92;;;16.20;59.50;;;;;;4993325;28;20493;-73
2022/04/21 08:57:23;;;;;;;20.70;2.85;;;16.20;59.50;;;;;;4993495;28;20065;-73
2022/04/21 08:59:48;;;;;;;20.45;2.42;;;16.20;59.30;;;;;;4975915;28;20026;-73
2022/04/21 09:02:14;;;;;;;22.25;2.35;;;16.20;59.70;;;;;;4993978;28;20026;-75
2022/04/21 09:04:43;;;;;;;65.88;4.35;;;16.30;59.90;;;;;;4993297;28;20485;-74
2022/04/21 09:07:23;;;;;;;55.30;4.72;;;16.30;60.60;;;;;;4976672;28;20394;-73
2022/04/21 09:10:01;;;;;;;16.90;2.13;;;16.50;61.00;;;;;;4992891;28;20493;-73
2022/04/21 09:12:27;;;;;;;28.65;2.40;;;16.60;60.70;;;;;;4993432;28;20069;-75
2022/04/21 09:14:53;;;;;;;21.63;2.67;;;16.60;60.30;;;;;;4992782;28;20062;-73
2022/04/21 09:17:18;;;;;;;22.58;2.08;;;16.60;60.20;;;;;;4993336;28;20070;-73
2022/04/21 09:19:58;;;;;;;28.65;2.30;;;16.60;59.80;;;;;;4993117;28;20389;-74
2022/04/21 09:22:24;;;;;;;15.95;2.30;;;16.60;59.80;;;;;;4992943;28;20078;-73
2022/04/21 09:24:56;;;;;;;11.63;1.73;;;16.60;59.20;;;;;;4992849;28;20125;-73
2022/04/21 09:27:21;;;;;;;12.63;2.28;;;16.60;59.30;;;;;;4992796;28;20026;-73
2022/04/21 09:29:49;;;;;;;16.98;2.08;;;16.70;59.50;;;;;;4992568;28;20371;-73
2022/04/21 09:32:20;;;;;;;22.30;2.00;;;16.90;58.90;;;;;;4992926;28;20022;-73
2022/04/21 09:34:50;;;;;;;25.98;2.53;;;16.90;58.80;;;;;;4992598;28;20023;-73
2022/04/21 09:37:20;;;;;;;20.70;1.83;;;17.10;58.80;;;;;;4992032;28;20425;-73
2022/04/21 09:39:50;;;;;;;11.32;2.22;;;17.10;58.10;;;;;;4992940;28;20026;-73
2022/04/21 09:42:27;;;;;;;21.33;2.55;;;17.00;57.80;;;;;;4992402;28;20512;-73
2022/04/21 09:48:01;;;;;;;25.27;1.90;;;17.10;58.40;;;;;;4971209;28;20033;-73
2022/04/21 09:50:27;;;;;;;22.43;1.73;;;17.30;58.60;;;;;;4992552;28;20121;-73
2022/04/21 09:52:54;;;;;;;35.97;3.38;;;17.30;58.30;;;;;;4992752;28;20038;-73
2022/04/21 09:55:27;;;;;;;21.73;1.90;;;17.30;57.40;;;;;;4992757;28;20069;-73
2022/04/21 09:58:04;;;;;;;38.83;3.33;;;17.30;57.90;;;;;;4992287;28;20031;-73
2022/04/21 10:00:30;;;;;;;55.45;3.75;;;17.50;58.30;;;;;;4992603;28;20165;-73
2022/04/21 10:02:57;;;;;;;11.75;1.73;;;17.50;57.80;;;;;;4992238;28;20109;-73
2022/04/21 10:05:24;;;;;;;7.82;1.40;;;17.50;57.30;;;;;;4992475;28;20379;-73
2022/04/21 10:07:50;;;;;;;17.77;1.83;;;17.60;57.30;;;;;;4992236;28;20085;-73
2022/04/21 10:10:17;;;;;;;8.75;1.13;;;17.60;56.40;;;;;;4992528;28;20497;-73
2022/04/21 10:12:43;;;;;;;19.15;1.75;;;17.60;56.70;;;;;;4992592;28;20057;-73
2022/04/21 10:15:10;;;;;;;47.08;2.58;;;17.60;56.40;;;;;;4992003;28;20030;-73
2022/04/21 10:17:37;;;;;;;13.13;1.38;;;17.50;56.10;;;;;;4992573;28;20030;-73
2022/04/21 10:20:04;;;;;;;12.93;1.20;;;17.60;57.00;;;;;;4992061;28;20023;-73
2022/04/21 10:22:34;;;;;;;13.98;1.33;;;17.70;56.60;;;;;;4992280;28;20022;-73
2022/04/21 10:25:01;;;;;;;20.17;1.67;;;17.70;56.00;;;;;;4992084;28;20028;-73
2022/04/21 10:27:47;;;;;;;58.67;4.25;;;17.70;55.80;;;;;;4992289;28;20034;-73
2022/04/21 10:30:14;;;;;;;28.42;2.33;;;17.70;55.70;;;;;;4992526;28;20031;-73
2022/04/21 10:32:53;;;;;;;26.42;2.10;;;17.70;55.40;;;;;;4992207;28;20029;-73
2022/04/21 10:35:20;;;;;;;12.90;1.30;;;17.70;54.90;;;;;;4992183;28;20030;-73
2022/04/21 10:37:46;;;;;;;19.23;1.50;;;17.70;55.10;;;;;;4991923;28;20494;-73
2022/04/21 10:40:15;;;;;;;15.27;1.48;;;17.70;54.80;;;;;;4992179;28;20034;-73
2022/04/21 10:42:52;;;;;;;16.02;1.30;;;17.80;55.60;;;;;;4991857;28;20030;-74
2022/04/21 10:45:33;;;;;;;10.52;1.88;;;17.80;55.10;;;;;;4991627;28;20442;-71
2022/04/21 10:48:04;;;;;;;9.30;1.30;;;17.80;55.10;;;;;;4993440;28;20038;-73
2022/04/21 10:50:31;;;;;;;17.05;1.42;;;17.80;54.50;;;;;;5004629;28;20034;-74
2022/04/21 10:58:35;;;;;;;4.05;1.08;;;17.90;54.50;;;;;;4996899;28;20029;-71
2022/04/21 11:01:13;;;;;;;15.90;1.80;;;17.90;54.10;;;;;;4996947;28;20033;-72
2022/04/21 11:03:41;;;;;;;12.43;1.30;;;17.90;54.20;;;;;;4995922;28;20062;-72
2022/04/21 11:06:10;;;;;;;11.85;1.15;;;17.90;54.10;;;;;;4995070;28;20026;-72
2022/04/21 11:08:36;;;;;;;7.40;0.85;;;17.90;54.30;;;;;;4995325;28;20034;-72
2022/04/21 11:11:03;;;;;;;7.50;1.00;;;17.90;53.90;;;;;;4994383;28;20047;-72
2022/04/21 11:13:52;;;;;;;12.63;1.23;;;17.80;54.00;;;;;;4995282;28;20041;-71
2022/04/21 11:16:42;;;;;;;12.43;1.70;;;17.90;53.80;;;;;;4975983;28;20057;-71
2022/04/21 11:19:34;;;;;;;43.40;3.63;;;17.80;53.60;;;;;;4975631;28;20082;-72
2022/04/21 11:22:05;;;;;;;30.38;2.13;;;17.80;54.00;;;;;;4975891;28;20031;-71
2022/04/21 11:24:55;;;;;;;36.78;2.53;;;17.80;53.70;;;;;;4975694;28;20085;-71
2022/04/21 11:27:24;;;;;;;11.65;1.20;;;17.80;54.00;;;;;;4975747;28;20023;-71
2022/04/21 11:29:50;;;;;;;12.00;1.20;;;17.80;54.70;;;;;;4975614;28;20030;-71
2022/04/21 11:32:18;;;;;;;7.93;1.17;;;17.80;53.70;;;;;;4975599;28;20027;-72
2022/04/21 11:35:01;;;;;;;16.00;1.75;;;17.80;53.60;;;;;;4975524;28;20055;-72
2022/04/21 11:37:50;;;;;;;18.20;1.50;;;17.80;53.40;;;;;;4977769;28;20053;-72
2022/04/21 11:40:23;;;;;;;57.72;3.50;;;17.70;53.50;;;;;;4994810;28;20026;-72
2022/04/21 11:42:50;;;;;;;14.20;2.00;;;17.80;53.70;;;;;;4994511;28;20082;-72
2022/04/21 11:45:28;;;;;;;22.90;1.50;;;17.80;53.40;;;;;;4994708;28;20038;-72
2022/04/21 11:47:54;;;;;;;10.77;1.52;;;17.80;53.40;;;;;;4994229;28;20037;-72
2022/04/21 11:50:21;;;;;;;17.08;1.65;;;17.80;53.00;;;;;;4994527;28;20034;-72
2022/04/21 11:52:52;;;;;;;12.43;1.10;;;17.70;53.30;;;;;;4994973;28;20117;-72
2022/04/21 11:55:19;;;;;;;29.90;1.95;;;17.70;53.30;;;;;;4994690;28;20026;-72
2022/04/21 11:57:45;;;;;;;28.77;1.80;;;17.70;53.40;;;;;;4994868;28;20359;-72
2022/04/21 12:00:12;;;;;;;11.82;1.13;;;17.70;53.20;;;;;;4993863;28;20038;-72
2022/04/21 12:08:11;;;;;;;9.35;1.20;;;17.60;53.00;;;;;;4994360;28;20029;-72
2022/04/21 12:10:37;;;;;;;15.55;1.83;;;17.60;52.90;;;;;;4994275;28;20038;-73
2022/04/21 12:13:03;;;;;;;14.25;1.40;;;17.60;53.70;;;;;;4993962;28;20062;-70
2022/04/21 12:15:30;;;;;;;36.80;2.22;;;17.80;58.20;;;;;;4994533;28;20027;-71
2022/04/21 12:18:02;;;;;;;51.95;3.50;;;18.00;53.90;;;;;;4994134;28;20486;-72
2022/04/21 12:20:28;;;;;;;11.32;1.65;;;17.90;53.50;;;;;;4994412;28;20366;-72
2022/04/21 12:22:55;;;;;;;24.85;1.40;;;17.90;52.80;;;;;;4994582;28;20039;-72
2022/04/21 12:25:31;;;;;;;11.05;1.02;;;17.80;53.30;;;;;;4994228;28;20117;-72
2022/04/21 12:28:05;;;;;;;5.30;1.05;;;17.70;53.10;;;;;;4994164;28;20033;-72
2022/04/21 12:30:31;;;;;;;29.45;1.98;;;17.70;53.40;;;;;;4994283;28;20104;-72
2022/04/21 12:32:57;;;;;;;16.02;1.65;;;17.70;53.60;;;;;;4993858;28;20037;-72
2022/04/21 12:35:45;;;;;;;8.95;1.17;;;17.70;53.90;;;;;;4994006;28;20050;-72
2022/04/21 12:41:01;;;;;;;27.13;2.67;;;17.60;53.90;;;;;;4993895;28;20034;-72
2022/04/21 12:43:28;;;;;;;24.13;1.83;;;17.70;54.00;;;;;;4993998;28;20042;-72
2022/04/21 12:45:57;;;;;;;14.45;1.50;;;17.70;53.50;;;;;;4993942;28;20034;-72
2022/04/21 12:48:27;;;;;;;17.50;1.63;;;17.70;53.10;;;;;;4993524;28;20022;-71
2022/04/21 12:50:55;;;;;;;36.92;2.47;;;17.60;53.30;;;;;;4993793;28;20371;-72
2022/04/21 12:53:40;;;;;;;15.65;1.90;;;17.60;53.60;;;;;;4994004;28;20026;-72
2022/04/21 12:56:10;;;;;;;10.88;1.10;;;17.60;53.70;;;;;;4993723;28;20088;-72
2022/04/21 12:58:38;;;;;;;;;;;17.60;54.30;;;;;;4993954;28;20030;-72
2022/04/21 13:01:05;;;;;;;41.38;2.88;;;17.50;54.80;;;;;;4993363;28;19906;-72
2022/04/21 13:03:32;;;;;;;17.90;1.48;;;17.70;56.70;;;;;;4993380;28;20107;-72
2022/04/21 13:05:59;;;;;;;20.08;1.48;;;17.70;54.60;;;;;;4993187;28;20496;-72
2022/04/21 13:08:29;;;;;;;41.70;2.97;;;17.60;54.00;;;;;;4993406;28;20084;-72
2022/04/21 13:10:57;;;;;;;12.10;1.63;;;17.60;54.50;;;;;;4993722;28;20029;-72
2022/04/21 13:13:23;;;;;;;26.50;1.80;;;17.60;54.90;;;;;;4992281;28;20446;-72
2022/04/21 13:15:49;;;;;;;21.85;2.38;;;17.60;55.00;;;;;;4993135;28;20371;-72
2022/04/21 13:18:16;;;;;;;20.27;2.00;;;17.60;55.30;;;;;;4993139;28;20552;-72
2022/04/21 13:23:27;;;;;;;10.57;1.30;;;17.60;54.10;;;;;;4993407;28;20699;-72
2022/04/21 13:25:54;;;;;;;31.92;1.90;;;17.60;54.30;;;;;;4993176;28;20030;-71
2022/04/21 13:28:20;;;;;;;20.23;1.33;;;17.60;54.60;;;;;;4993366;28;20080;-71
2022/04/21 13:30:46;;;;;;;37.38;3.65;;;17.60;54.40;;;;;;4993069;28;20126;-72
2022/04/21 13:33:24;;;;;;;24.92;2.75;;;17.50;54.20;;;;;;4992879;28;20145;-71
2022/04/21 13:35:54;;;;;;;8.77;1.20;;;17.50;54.20;;;;;;4992962;28;20536;-71
2022/04/21 13:38:21;;;;;;;31.80;1.60;;;17.60;54.30;;;;;;4992515;28;20084;-72
2022/04/21 13:40:47;;;;;;;21.13;1.70;;;17.50;54.10;;;;;;4992662;28;20035;-71
2022/04/21 13:43:13;;;;;;;11.40;1.48;;;17.50;54.50;;;;;;4992560;28;20110;-71
2022/04/21 13:45:39;;;;;;;34.75;2.17;;;17.50;55.00;;;;;;4992632;28;20030;-71
2022/04/21 13:48:08;;;;;;;31.35;3.15;;;17.50;54.70;;;;;;4992723;28;20072;-73
2022/04/21 13:50:34;;;;;;;53.08;3.90;;;17.50;54.90;;;;;;4992522;28;20473;-74
2022/04/21 13:52:59;;;;;;;28.05;2.45;;;17.50;55.00;;;;;;4992578;28;20032;-71
2022/04/21 13:55:25;;;;;;;34.45;2.13;;;17.60;55.00;;;;;;4992697;28;20397;-72
2022/04/21 13:57:51;;;;;;;66.40;5.18;;;17.60;54.70;;;;;;4992463;28;20026;-71
2022/04/21 14:00:18;;;;;;;31.98;2.40;;;17.50;55.20;;;;;;4992650;28;20042;-71
2022/04/21 14:02:43;;;;;;;56.03;3.15;;;17.90;56.30;;;;;;4992570;28;20019;-69
2022/04/21 14:05:09;;;;;;;28.50;1.83;;;17.90;56.40;;;;;;4992168;28;20498;-73
2022/04/21 14:07:35;;;;;;;26.67;2.17;;;17.90;54.80;;;;;;4991921;28;20474;-72
2022/04/21 14:10:01;;;;;;;10.23;0.90;;;17.70;55.30;;;;;;4991627;28;20057;-73
2022/04/21 14:12:29;;;;;;;92.13;5.00;;;17.70;55.40;;;;;;4964450;28;20117;-73
2022/04/21 14:14:55;;;;;;;20.15;1.83;;;17.60;55.20;;;;;;4986460;28;20106;-73
2022/04/21 14:17:21;;;;;;;12.35;1.35;;;17.60;55.20;;;;;;4991262;28;20122;-75
2022/04/21 14:19:46;;;;;;;14.15;1.98;;;17.60;55.20;;;;;;4980660;28;20054;-75
2022/04/21 14:22:12;;;;;;;15.05;1.60;;;17.50;55.40;;;;;;4972510;28;20023;-75
2022/04/21 14:24:38;;;;;;;28.85;1.90;;;17.50;55.70;;;;;;4967579;28;20034;-74
2022/04/21 14:27:05;;;;;;;6.07;1.35;;;17.50;56.00;;;;;;4995729;28;20026;-74
2022/04/21 14:29:31;;;;;;;14.23;1.60;;;17.50;56.00;;;;;;4983238;28;20069;-76
2022/04/21 14:31:56;;;;;;;20.10;2.22;;;17.50;55.90;;;;;;4996026;28;20054;-76
2022/04/21 14:34:25;;;;;;;26.20;2.60;;;17.50;56.50;;;;;;4995843;28;20073;-75
2022/04/21 14:36:51;;;;;;;14.13;1.77;;;17.50;56.40;;;;;;4989616;28;20018;-75
2022/04/21 14:45:04;;;;;;;24.00;1.85;;;17.50;56.20;;;;;;4971842;28;20122;-72
2022/04/21 14:47:30;;;;;;;19.42;2.30;;;17.50;55.60;;;;;;4989314;28;20058;-73
2022/04/21 14:49:55;;;;;;;16.33;1.90;;;17.50;55.70;;;;;;4995730;28;20036;-73